sensor_id;sensor_type;location;lat;lon;timestamp;P1;durP1;ratioP1;P2;durP2;ratioP2
9166;SDS011;4618;48.818;9.088;2022-12-07T00:03:40;9.23;;;8.30;;
9166;SDS011;4618;48.818;9.088;2022-12-07T00:06:07;9.37;;;8.37;;
9166;SDS011;4618;48.818;9.088;2022-12-07T00:08:33;9.17;;;8.17;;
9166;SDS011;4618;48.818;9.088;2022-12-07T00:11:03;10.23;;;8.23;;
9166;SDS011;4618;48.818;9.088;2022-12-07T00:13:33;11.37;;;8.87;;
9166;SDS011;4618;48.818;9.088;2022-12-07T00:16:00;9.20;;;8.20;;
9166;SDS011;4618;48.818;9.088;2022-12-07T00:18:27;9.57;;;8.57;;
9166;SDS011;4618;48.818;9.088;2022-12-07T00:20:53;9.93;;;8.87;;
9166;SDS011;4618;48.818;9.088;2022-12-07T00:23:23;9.97;;;8.97;;
9166;SDS011;4618;48.818;9.088;2022-12-07T00:25:49;9.73;;;8.73;;
9166;SDS011;4618;48.818;9.088;2022-12-07T00:28:14;10.20;;;9.20;;
9166;SDS011;4618;48.818;9.088;2022-12-07T00:30:40;11.10;;;9.03;;
9166;SDS011;4618;48.818;9.088;2022-12-07T00:33:05;10.97;;;9.20;;
9166;SDS011;4618;48.818;9.088;2022-12-07T00:35:31;10.57;;;9.47;;
9166;SDS011;4618;48.818;9.088;2022-12-07T00:37:56;10.13;;;9.10;;
9166;SDS011;4618;48.818;9.088;2022-12-07T00:40:22;11.27;;;9.97;;
9166;SDS011;4618;48.818;9.088;2022-12-07T00:42:47;10.70;;;8.97;;
9166;SDS011;4618;48.818;9.088;2022-12-07T00:45:13;10.33;;;9.33;;
9166;SDS011;4618;48.818;9.088;2022-12-07T00:47:39;10.87;;;9.27;;
9166;SDS011;4618;48.818;9.088;2022-12-07T00:50:04;10.90;;;9.73;;
9166;SDS011;4618;48.818;9.088;2022-12-07T00:52:30;11.60;;;9.70;;
9166;SDS011;4618;48.818;9.088;2022-12-07T00:54:56;12.47;;;10.13;;
9166;SDS011;4618;48.818;9.088;2022-12-07T00:57:21;11.30;;;10.13;;
9166;SDS011;4618;48.818;9.088;2022-12-07T00:59:47;11.97;;;9.77;;
9166;SDS011;4618;48.818;9.088;2022-12-07T01:02:13;11.70;;;9.70;;
9166;SDS011;4618;48.818;9.088;2022-12-07T01:04:39;12.17;;;9.37;;
9166;SDS011;4618;48.818;9.088;2022-12-07T01:07:04;12.60;;;10.30;;
9166;SDS011;4618;48.818;9.088;2022-12-07T01:09:30;11.00;;;9.90;;
9166;SDS011;4618;48.818;9.088;2022-12-07T01:11:55;11.00;;;9.67;;
9166;SDS011;4618;48.818;9.088;2022-12-07T01:14:21;12.10;;;9.77;;
9166;SDS011;4618;48.818;9.088;2022-12-07T01:16:46;12.27;;;10.67;;
9166;SDS011;4618;48.818;9.088;2022-12-07T01:19:12;11.97;;;10.60;;
9166;SDS011;4618;48.818;9.088;2022-12-07T01:21:38;11.07;;;9.87;;
9166;SDS011;4618;48.818;9.088;2022-12-07T01:24:04;11.23;;;10.03;;
9166;SDS011;4618;48.818;9.088;2022-12-07T01:26:31;12.13;;;10.60;;
9166;SDS011;4618;48.818;9.088;2022-12-07T01:28:57;11.23;;;9.80;;
9166;SDS011;4618;48.818;9.088;2022-12-07T01:31:24;11.20;;;10.07;;
9166;SDS011;4618;48.818;9.088;2022-12-07T01:33:51;11.53;;;10.33;;
9166;SDS011;4618;48.818;9.088;2022-12-07T01:36:25;11.57;;;10.07;;
9166;SDS011;4618;48.818;9.088;2022-12-07T01:38:57;10.87;;;9.77;;
9166;SDS011;4618;48.818;9.088;2022-12-07T01:41:25;12.53;;;10.13;;
9166;SDS011;4618;48.818;9.088;2022-12-07T01:44:13;10.63;;;9.53;;
9166;SDS011;4618;48.818;9.088;2022-12-07T01:46:44;10.83;;;9.73;;
9166;SDS011;4618;48.818;9.088;2022-12-07T01:52:10;11.60;;;9.50;;
9166;SDS011;4618;48.818;9.088;2022-12-07T01:54:41;10.80;;;9.70;;
9166;SDS011;4618;48.818;9.088;2022-12-07T01:57:08;12.83;;;10.07;;
9166;SDS011;4618;48.818;9.088;2022-12-07T01:59:35;11.57;;;9.93;;
9166;SDS011;4618;48.818;9.088;2022-12-07T02:02:01;10.80;;;9.33;;
9166;SDS011;4618;48.818;9.088;2022-12-07T02:04:30;11.67;;;9.90;;
9166;SDS011;4618;48.818;9.088;2022-12-07T02:06:56;12.10;;;9.70;;
9166;SDS011;4618;48.818;9.088;2022-12-07T02:09:23;10.47;;;8.97;;
9166;SDS011;4618;48.818;9.088;2022-12-07T02:11:48;10.97;;;9.40;;
9166;SDS011;4618;48.818;9.088;2022-12-07T02:14:15;12.63;;;9.80;;
9166;SDS011;4618;48.818;9.088;2022-12-07T02:16:44;12.00;;;9.83;;
9166;SDS011;4618;48.818;9.088;2022-12-07T02:22:01;10.53;;;8.63;;
9166;SDS011;4618;48.818;9.088;2022-12-07T02:30:06;11.63;;;10.27;;
9166;SDS011;4618;48.818;9.088;2022-12-07T02:35:39;14.03;;;9.70;;
9166;SDS011;4618;48.818;9.088;2022-12-07T02:40:48;12.23;;;10.87;;
9166;SDS011;4618;48.818;9.088;2022-12-07T02:43:24;12.57;;;10.63;;
9166;SDS011;4618;48.818;9.088;2022-12-07T02:45:50;11.43;;;9.97;;
9166;SDS011;4618;48.818;9.088;2022-12-07T02:48:18;11.47;;;10.00;;
9166;SDS011;4618;48.818;9.088;2022-12-07T02:50:48;11.43;;;9.20;;
9166;SDS011;4618;48.818;9.088;2022-12-07T02:59:02;11.17;;;9.57;;
9166;SDS011;4618;48.818;9.088;2022-12-07T03:01:41;11.13;;;9.50;;
9166;SDS011;4618;48.818;9.088;2022-12-07T03:07:36;10.73;;;9.63;;
9166;SDS011;4618;48.818;9.088;2022-12-07T03:15:31;11.43;;;10.13;;
9166;SDS011;4618;48.818;9.088;2022-12-07T03:18:07;11.77;;;10.13;;
9166;SDS011;4618;48.818;9.088;2022-12-07T03:20:36;11.27;;;10.07;;
9166;SDS011;4618;48.818;9.088;2022-12-07T03:23:04;12.17;;;10.40;;
9166;SDS011;4618;48.818;9.088;2022-12-07T03:25:34;12.77;;;10.80;;
9166;SDS011;4618;48.818;9.088;2022-12-07T03:28:04;12.60;;;10.40;;
9166;SDS011;4618;48.818;9.088;2022-12-07T03:33:13;13.97;;;10.37;;
9166;SDS011;4618;48.818;9.088;2022-12-07T03:35:51;12.10;;;10.57;;
9166;SDS011;4618;48.818;9.088;2022-12-07T03:38:23;11.63;;;10.17;;
9166;SDS011;4618;48.818;9.088;2022-12-07T03:41:09;13.07;;;10.63;;
9166;SDS011;4618;48.818;9.088;2022-12-07T03:43:41;12.07;;;10.47;;
9166;SDS011;4618;48.818;9.088;2022-12-07T03:51:39;11.90;;;10.00;;
9166;SDS011;4618;48.818;9.088;2022-12-07T03:56:44;11.17;;;10.00;;
9166;SDS011;4618;48.818;9.088;2022-12-07T03:59:11;13.60;;;10.33;;
9166;SDS011;4618;48.818;9.088;2022-12-07T04:01:38;12.23;;;10.00;;
9166;SDS011;4618;48.818;9.088;2022-12-07T04:04:07;11.93;;;10.63;;
9166;SDS011;4618;48.818;9.088;2022-12-07T04:06:32;11.77;;;9.93;;
9166;SDS011;4618;48.818;9.088;2022-12-07T04:08:58;12.20;;;10.20;;
9166;SDS011;4618;48.818;9.088;2022-12-07T04:11:24;12.47;;;9.00;;
9166;SDS011;4618;48.818;9.088;2022-12-07T04:13:49;11.67;;;10.33;;
9166;SDS011;4618;48.818;9.088;2022-12-07T04:16:34;11.30;;;9.57;;
9166;SDS011;4618;48.818;9.088;2022-12-07T04:18:59;12.57;;;10.00;;
9166;SDS011;4618;48.818;9.088;2022-12-07T04:21:25;12.97;;;10.20;;
9166;SDS011;4618;48.818;9.088;2022-12-07T04:23:50;13.13;;;9.90;;
9166;SDS011;4618;48.818;9.088;2022-12-07T04:26:16;9.40;;;8.40;;
9166;SDS011;4618;48.818;9.088;2022-12-07T04:28:41;10.87;;;8.80;;
9166;SDS011;4618;48.818;9.088;2022-12-07T04:31:07;9.30;;;8.30;;
9166;SDS011;4618;48.818;9.088;2022-12-07T04:33:33;8.20;;;7.07;;
9166;SDS011;4618;48.818;9.088;2022-12-07T04:36:00;7.73;;;6.30;;
9166;SDS011;4618;48.818;9.088;2022-12-07T04:38:25;6.53;;;5.83;;
9166;SDS011;4618;48.818;9.088;2022-12-07T04:40:51;6.03;;;5.20;;
9166;SDS011;4618;48.818;9.088;2022-12-07T04:43:16;5.17;;;4.57;;
9166;SDS011;4618;48.818;9.088;2022-12-07T04:45:46;5.53;;;4.70;;
9166;SDS011;4618;48.818;9.088;2022-12-07T04:48:12;4.40;;;4.00;;
9166;SDS011;4618;48.818;9.088;2022-12-07T04:50:38;5.60;;;4.23;;
9166;SDS011;4618;48.818;9.088;2022-12-07T04:53:03;5.53;;;4.60;;
9166;SDS011;4618;48.818;9.088;2022-12-07T04:55:29;4.87;;;4.37;;
9166;SDS011;4618;48.818;9.088;2022-12-07T04:57:54;5.13;;;4.63;;
9166;SDS011;4618;48.818;9.088;2022-12-07T05:00:20;6.43;;;4.83;;
9166;SDS011;4618;48.818;9.088;2022-12-07T05:02:46;5.40;;;4.73;;
9166;SDS011;4618;48.818;9.088;2022-12-07T05:05:11;5.70;;;5.10;;
9166;SDS011;4618;48.818;9.088;2022-12-07T05:07:37;6.27;;;5.40;;
9166;SDS011;4618;48.818;9.088;2022-12-07T05:10:03;5.87;;;5.30;;
9166;SDS011;4618;48.818;9.088;2022-12-07T05:12:29;6.37;;;5.57;;
9166;SDS011;4618;48.818;9.088;2022-12-07T05:14:54;7.80;;;5.90;;
9166;SDS011;4618;48.818;9.088;2022-12-07T05:17:20;7.90;;;6.47;;
9166;SDS011;4618;48.818;9.088;2022-12-07T05:19:46;8.03;;;6.77;;
9166;SDS011;4618;48.818;9.088;2022-12-07T05:22:11;8.43;;;7.53;;
9166;SDS011;4618;48.818;9.088;2022-12-07T05:24:38;11.53;;;7.40;;
9166;SDS011;4618;48.818;9.088;2022-12-07T05:27:04;9.43;;;7.80;;
9166;SDS011;4618;48.818;9.088;2022-12-07T05:29:29;8.07;;;6.77;;
9166;SDS011;4618;48.818;9.088;2022-12-07T05:31:55;9.33;;;7.23;;
9166;SDS011;4618;48.818;9.088;2022-12-07T05:34:20;9.80;;;7.27;;
9166;SDS011;4618;48.818;9.088;2022-12-07T05:36:46;8.07;;;6.40;;
9166;SDS011;4618;48.818;9.088;2022-12-07T05:39:12;8.30;;;7.00;;
9166;SDS011;4618;48.818;9.088;2022-12-07T05:41:37;7.50;;;6.70;;
9166;SDS011;4618;48.818;9.088;2022-12-07T05:44:22;8.77;;;7.40;;
9166;SDS011;4618;48.818;9.088;2022-12-07T05:46:47;9.27;;;7.50;;
9166;SDS011;4618;48.818;9.088;2022-12-07T05:49:13;9.17;;;7.13;;
9166;SDS011;4618;48.818;9.088;2022-12-07T05:51:38;8.37;;;6.63;;
9166;SDS011;4618;48.818;9.088;2022-12-07T05:54:04;7.30;;;6.50;;
9166;SDS011;4618;48.818;9.088;2022-12-07T05:56:30;7.40;;;6.60;;
9166;SDS011;4618;48.818;9.088;2022-12-07T05:58:55;8.93;;;7.33;;
9166;SDS011;4618;48.818;9.088;2022-12-07T06:01:39;8.40;;;6.77;;
9166;SDS011;4618;48.818;9.088;2022-12-07T06:04:05;8.87;;;7.27;;
9166;SDS011;4618;48.818;9.088;2022-12-07T06:06:30;8.40;;;6.80;;
9166;SDS011;4618;48.818;9.088;2022-12-07T06:08:56;9.87;;;7.30;;
9166;SDS011;4618;48.818;9.088;2022-12-07T06:11:22;7.37;;;6.53;;
9166;SDS011;4618;48.818;9.088;2022-12-07T06:14:06;8.20;;;6.93;;
9166;SDS011;4618;48.818;9.088;2022-12-07T06:16:31;8.77;;;7.20;;
9166;SDS011;4618;48.818;9.088;2022-12-07T06:18:57;8.07;;;6.27;;
9166;SDS011;4618;48.818;9.088;2022-12-07T06:21:23;8.40;;;6.87;;
9166;SDS011;4618;48.818;9.088;2022-12-07T06:23:50;9.70;;;7.57;;
9166;SDS011;4618;48.818;9.088;2022-12-07T06:26:16;11.13;;;9.57;;
9166;SDS011;4618;48.818;9.088;2022-12-07T06:28:41;10.77;;;9.30;;
9166;SDS011;4618;48.818;9.088;2022-12-07T06:31:07;10.93;;;8.67;;
9166;SDS011;4618;48.818;9.088;2022-12-07T06:33:33;9.17;;;7.67;;
9166;SDS011;4618;48.818;9.088;2022-12-07T06:35:58;9.67;;;7.13;;
9166;SDS011;4618;48.818;9.088;2022-12-07T06:38:24;7.93;;;6.50;;
9166;SDS011;4618;48.818;9.088;2022-12-07T06:40:50;7.47;;;6.53;;
9166;SDS011;4618;48.818;9.088;2022-12-07T06:43:16;7.73;;;6.77;;
9166;SDS011;4618;48.818;9.088;2022-12-07T06:45:41;8.07;;;6.57;;
9166;SDS011;4618;48.818;9.088;2022-12-07T06:48:07;6.00;;;5.40;;
9166;SDS011;4618;48.818;9.088;2022-12-07T06:50:33;6.10;;;5.50;;
9166;SDS011;4618;48.818;9.088;2022-12-07T06:52:58;7.00;;;5.47;;
9166;SDS011;4618;48.818;9.088;2022-12-07T06:55:24;6.80;;;5.97;;
9166;SDS011;4618;48.818;9.088;2022-12-07T06:57:50;5.80;;;5.10;;
9166;SDS011;4618;48.818;9.088;2022-12-07T07:00:15;5.53;;;5.03;;
9166;SDS011;4618;48.818;9.088;2022-12-07T07:02:41;7.80;;;5.23;;
9166;SDS011;4618;48.818;9.088;2022-12-07T07:05:07;5.77;;;5.17;;
9166;SDS011;4618;48.818;9.088;2022-12-07T07:07:33;5.90;;;5.07;;
9166;SDS011;4618;48.818;9.088;2022-12-07T07:09:58;5.67;;;5.10;;
9166;SDS011;4618;48.818;9.088;2022-12-07T07:12:24;5.90;;;5.30;;
9166;SDS011;4618;48.818;9.088;2022-12-07T07:14:49;5.90;;;4.73;;
9166;SDS011;4618;48.818;9.088;2022-12-07T07:17:15;5.57;;;4.83;;
9166;SDS011;4618;48.818;9.088;2022-12-07T07:19:40;5.90;;;5.30;;
9166;SDS011;4618;48.818;9.088;2022-12-07T07:22:06;5.73;;;4.93;;
9166;SDS011;4618;48.818;9.088;2022-12-07T07:24:32;5.63;;;4.63;;
9166;SDS011;4618;48.818;9.088;2022-12-07T07:26:57;6.57;;;4.77;;
9166;SDS011;4618;48.818;9.088;2022-12-07T07:29:23;5.10;;;4.30;;
9166;SDS011;4618;48.818;9.088;2022-12-07T07:31:49;7.17;;;4.83;;
9166;SDS011;4618;48.818;9.088;2022-12-07T07:34:14;7.30;;;4.93;;
9166;SDS011;4618;48.818;9.088;2022-12-07T07:36:40;7.37;;;4.90;;
9166;SDS011;4618;48.818;9.088;2022-12-07T07:39:06;5.77;;;5.17;;
9166;SDS011;4618;48.818;9.088;2022-12-07T07:41:31;6.50;;;4.93;;
9166;SDS011;4618;48.818;9.088;2022-12-07T07:43:57;5.70;;;5.10;;
9166;SDS011;4618;48.818;9.088;2022-12-07T07:46:22;7.53;;;4.70;;
9166;SDS011;4618;48.818;9.088;2022-12-07T07:48:48;6.10;;;4.87;;
9166;SDS011;4618;48.818;9.088;2022-12-07T07:51:14;5.43;;;4.80;;
9166;SDS011;4618;48.818;9.088;2022-12-07T07:53:39;6.53;;;4.57;;
9166;SDS011;4618;48.818;9.088;2022-12-07T07:56:05;5.10;;;4.60;;
9166;SDS011;4618;48.818;9.088;2022-12-07T07:58:31;6.20;;;4.60;;
9166;SDS011;4618;48.818;9.088;2022-12-07T08:00:56;5.50;;;4.73;;
9166;SDS011;4618;48.818;9.088;2022-12-07T08:03:22;5.60;;;4.70;;
9166;SDS011;4618;48.818;9.088;2022-12-07T08:05:48;5.60;;;4.20;;
9166;SDS011;4618;48.818;9.088;2022-12-07T08:08:13;6.80;;;4.70;;
9166;SDS011;4618;48.818;9.088;2022-12-07T08:10:39;5.47;;;4.60;;
9166;SDS011;4618;48.818;9.088;2022-12-07T08:13:04;5.73;;;4.93;;
9166;SDS011;4618;48.818;9.088;2022-12-07T08:15:37;5.70;;;5.10;;
9166;SDS011;4618;48.818;9.088;2022-12-07T08:18:03;8.63;;;4.93;;
9166;SDS011;4618;48.818;9.088;2022-12-07T08:20:30;6.23;;;4.77;;
9166;SDS011;4618;48.818;9.088;2022-12-07T08:22:56;6.27;;;4.97;;
9166;SDS011;4618;48.818;9.088;2022-12-07T08:25:22;5.67;;;5.07;;
9166;SDS011;4618;48.818;9.088;2022-12-07T08:27:48;6.37;;;4.73;;
9166;SDS011;4618;48.818;9.088;2022-12-07T08:30:15;6.97;;;5.43;;
9166;SDS011;4618;48.818;9.088;2022-12-07T08:32:41;5.13;;;4.53;;
9166;SDS011;4618;48.818;9.088;2022-12-07T08:35:08;6.40;;;5.07;;
9166;SDS011;4618;48.818;9.088;2022-12-07T08:37:34;6.07;;;4.83;;
9166;SDS011;4618;48.818;9.088;2022-12-07T08:40:00;6.20;;;5.00;;
9166;SDS011;4618;48.818;9.088;2022-12-07T08:42:25;7.13;;;4.73;;
9166;SDS011;4618;48.818;9.088;2022-12-07T08:44:55;6.77;;;4.50;;
9166;SDS011;4618;48.818;9.088;2022-12-07T08:47:22;4.80;;;4.30;;
9166;SDS011;4618;48.818;9.088;2022-12-07T08:49:49;7.77;;;4.80;;
9166;SDS011;4618;48.818;9.088;2022-12-07T08:52:15;5.90;;;5.17;;
9166;SDS011;4618;48.818;9.088;2022-12-07T08:54:42;6.13;;;4.37;;
9166;SDS011;4618;48.818;9.088;2022-12-07T08:57:08;5.37;;;4.40;;
9166;SDS011;4618;48.818;9.088;2022-12-07T08:59:35;6.07;;;4.67;;
9166;SDS011;4618;48.818;9.088;2022-12-07T09:02:02;5.80;;;4.60;;
9166;SDS011;4618;48.818;9.088;2022-12-07T09:04:29;6.40;;;4.73;;
9166;SDS011;4618;48.818;9.088;2022-12-07T09:06:54;6.83;;;4.40;;
9166;SDS011;4618;48.818;9.088;2022-12-07T09:09:21;5.63;;;4.60;;
9166;SDS011;4618;48.818;9.088;2022-12-07T09:11:46;5.37;;;4.10;;
9166;SDS011;4618;48.818;9.088;2022-12-07T09:14:12;4.13;;;3.57;;
9166;SDS011;4618;48.818;9.088;2022-12-07T09:16:38;3.73;;;3.43;;
9166;SDS011;4618;48.818;9.088;2022-12-07T09:19:04;4.13;;;3.73;;
9166;SDS011;4618;48.818;9.088;2022-12-07T09:21:30;4.30;;;3.83;;
9166;SDS011;4618;48.818;9.088;2022-12-07T09:23:56;3.80;;;3.50;;
9166;SDS011;4618;48.818;9.088;2022-12-07T09:26:21;4.10;;;3.60;;
9166;SDS011;4618;48.818;9.088;2022-12-07T09:28:47;4.47;;;4.03;;
9166;SDS011;4618;48.818;9.088;2022-12-07T09:31:13;4.30;;;3.90;;
9166;SDS011;4618;48.818;9.088;2022-12-07T09:33:38;4.10;;;3.70;;
9166;SDS011;4618;48.818;9.088;2022-12-07T09:36:04;4.10;;;3.70;;
9166;SDS011;4618;48.818;9.088;2022-12-07T09:38:30;4.83;;;3.73;;
9166;SDS011;4618;48.818;9.088;2022-12-07T09:40:57;4.30;;;3.30;;
9166;SDS011;4618;48.818;9.088;2022-12-07T09:43:28;4.17;;;3.20;;
9166;SDS011;4618;48.818;9.088;2022-12-07T09:45:54;4.37;;;3.00;;
9166;SDS011;4618;48.818;9.088;2022-12-07T09:48:26;3.90;;;3.50;;
9166;SDS011;4618;48.818;9.088;2022-12-07T09:50:53;3.90;;;3.30;;
9166;SDS011;4618;48.818;9.088;2022-12-07T09:53:26;3.70;;;3.40;;
9166;SDS011;4618;48.818;9.088;2022-12-07T09:55:58;4.27;;;3.87;;
9166;SDS011;4618;48.818;9.088;2022-12-07T09:58:25;3.83;;;3.47;;
9166;SDS011;4618;48.818;9.088;2022-12-07T10:00:56;4.47;;;3.60;;
9166;SDS011;4618;48.818;9.088;2022-12-07T10:03:35;5.30;;;3.90;;
9166;SDS011;4618;48.818;9.088;2022-12-07T10:06:03;5.07;;;4.10;;
9166;SDS011;4618;48.818;9.088;2022-12-07T10:08:30;4.30;;;3.50;;
9166;SDS011;4618;48.818;9.088;2022-12-07T10:10:56;3.90;;;3.50;;
9166;SDS011;4618;48.818;9.088;2022-12-07T10:13:33;5.50;;;3.80;;
9166;SDS011;4618;48.818;9.088;2022-12-07T10:16:04;4.33;;;3.93;;
9166;SDS011;4618;48.818;9.088;2022-12-07T10:18:36;4.37;;;3.90;;
9166;SDS011;4618;48.818;9.088;2022-12-07T10:23:35;4.00;;;3.30;;
9166;SDS011;4618;48.818;9.088;2022-12-07T10:26:19;4.60;;;3.33;;
9166;SDS011;4618;48.818;9.088;2022-12-07T10:28:45;4.30;;;3.90;;
9166;SDS011;4618;48.818;9.088;2022-12-07T10:31:15;3.83;;;3.17;;
9166;SDS011;4618;48.818;9.088;2022-12-07T10:33:57;5.37;;;3.90;;
9166;SDS011;4618;48.818;9.088;2022-12-07T10:36:25;3.97;;;3.30;;
9166;SDS011;4618;48.818;9.088;2022-12-07T10:39:17;4.17;;;3.30;;
9166;SDS011;4618;48.818;9.088;2022-12-07T10:41:58;5.33;;;3.37;;
9166;SDS011;4618;48.818;9.088;2022-12-07T10:44:26;4.80;;;2.80;;
9166;SDS011;4618;48.818;9.088;2022-12-07T10:52:30;4.17;;;2.07;;
9166;SDS011;4618;48.818;9.088;2022-12-07T10:55:08;3.03;;;2.20;;
9166;SDS011;4618;48.818;9.088;2022-12-07T11:00:25;2.53;;;2.33;;
9166;SDS011;4618;48.818;9.088;2022-12-07T11:06:00;1.87;;;1.37;;
9166;SDS011;4618;48.818;9.088;2022-12-07T11:11:59;2.27;;;1.50;;
9166;SDS011;4618;48.818;9.088;2022-12-07T11:15:13;1.60;;;1.50;;
9166;SDS011;4618;48.818;9.088;2022-12-07T11:17:29;2.20;;;1.80;;
9166;SDS011;4618;48.818;9.088;2022-12-07T11:26:11;3.93;;;2.57;;
9166;SDS011;4618;48.818;9.088;2022-12-07T11:29:15;3.33;;;2.70;;
9166;SDS011;4618;48.818;9.088;2022-12-07T11:37:21;6.33;;;4.70;;
9166;SDS011;4618;48.818;9.088;2022-12-07T11:39:55;5.17;;;4.67;;
9166;SDS011;4618;48.818;9.088;2022-12-07T11:42:39;5.73;;;4.87;;
9166;SDS011;4618;48.818;9.088;2022-12-07T11:47:52;6.00;;;4.87;;
9166;SDS011;4618;48.818;9.088;2022-12-07T11:52:59;5.90;;;5.30;;
9166;SDS011;4618;48.818;9.088;2022-12-07T12:03:51;5.53;;;4.20;;
9166;SDS011;4618;48.818;9.088;2022-12-07T12:06:22;6.60;;;4.83;;
9166;SDS011;4618;48.818;9.088;2022-12-07T12:08:53;8.07;;;5.40;;
9166;SDS011;4618;48.818;9.088;2022-12-07T12:11:54;7.83;;;4.97;;
9166;SDS011;4618;48.818;9.088;2022-12-07T12:22:20;4.53;;;3.80;;
9166;SDS011;4618;48.818;9.088;2022-12-07T12:24:52;4.93;;;4.43;;
9166;SDS011;4618;48.818;9.088;2022-12-07T12:27:24;6.73;;;4.70;;
9166;SDS011;4618;48.818;9.088;2022-12-07T12:29:57;5.10;;;4.60;;
9166;SDS011;4618;48.818;9.088;2022-12-07T12:40:50;6.83;;;5.27;;
9166;SDS011;4618;48.818;9.088;2022-12-07T12:48:55;6.03;;;4.43;;
9166;SDS011;4618;48.818;9.088;2022-12-07T12:51:42;4.70;;;4.10;;
9166;SDS011;4618;48.818;9.088;2022-12-07T12:54:30;7.70;;;4.50;;
9166;SDS011;4618;48.818;9.088;2022-12-07T13:02:27;4.27;;;3.87;;
9166;SDS011;4618;48.818;9.088;2022-12-07T13:10:21;5.30;;;4.30;;
9166;SDS011;4618;48.818;9.088;2022-12-07T13:12:59;4.97;;;4.20;;
9166;SDS011;4618;48.818;9.088;2022-12-07T13:15:33;6.97;;;4.73;;
9166;SDS011;4618;48.818;9.088;2022-12-07T13:23:29;4.67;;;3.73;;
9166;SDS011;4618;48.818;9.088;2022-12-07T13:26:23;5.73;;;4.67;;
9166;SDS011;4618;48.818;9.088;2022-12-07T13:34:05;5.30;;;4.80;;
9166;SDS011;4618;48.818;9.088;2022-12-07T13:37:08;5.73;;;5.10;;
9166;SDS011;4618;48.818;9.088;2022-12-07T13:39:35;5.77;;;4.97;;
9166;SDS011;4618;48.818;9.088;2022-12-07T13:42:16;5.50;;;5.00;;
9166;SDS011;4618;48.818;9.088;2022-12-07T13:44:51;6.30;;;4.63;;
9166;SDS011;4618;48.818;9.088;2022-12-07T13:47:18;5.77;;;5.23;;
9166;SDS011;4618;48.818;9.088;2022-12-07T13:50:26;6.10;;;5.27;;
9166;SDS011;4618;48.818;9.088;2022-12-07T13:53:00;6.50;;;5.20;;
9166;SDS011;4618;48.818;9.088;2022-12-07T13:55:26;6.13;;;5.30;;
9166;SDS011;4618;48.818;9.088;2022-12-07T13:57:54;5.47;;;4.97;;
9166;SDS011;4618;48.818;9.088;2022-12-07T14:00:21;5.87;;;4.90;;
9166;SDS011;4618;48.818;9.088;2022-12-07T14:02:56;6.63;;;4.90;;
9166;SDS011;4618;48.818;9.088;2022-12-07T14:05:31;6.67;;;5.33;;
9166;SDS011;4618;48.818;9.088;2022-12-07T14:10:39;7.70;;;4.73;;
9166;SDS011;4618;48.818;9.088;2022-12-07T14:16:05;4.63;;;4.20;;
9166;SDS011;4618;48.818;9.088;2022-12-07T14:18:46;5.27;;;4.43;;
9166;SDS011;4618;48.818;9.088;2022-12-07T14:23:38;6.23;;;5.10;;
9166;SDS011;4618;48.818;9.088;2022-12-07T14:26:20;7.50;;;4.80;;
9166;SDS011;4618;48.818;9.088;2022-12-07T14:28:46;9.77;;;5.50;;
9166;SDS011;4618;48.818;9.088;2022-12-07T14:31:13;4.93;;;4.30;;
9166;SDS011;4618;48.818;9.088;2022-12-07T14:33:40;6.57;;;5.10;;
9166;SDS011;4618;48.818;9.088;2022-12-07T14:36:09;5.80;;;5.20;;
9166;SDS011;4618;48.818;9.088;2022-12-07T14:38:37;5.87;;;5.10;;
9166;SDS011;4618;48.818;9.088;2022-12-07T14:41:03;6.80;;;5.50;;
9166;SDS011;4618;48.818;9.088;2022-12-07T14:43:50;6.50;;;4.80;;
9166;SDS011;4618;48.818;9.088;2022-12-07T14:46:15;7.50;;;5.87;;
9166;SDS011;4618;48.818;9.088;2022-12-07T14:48:41;6.67;;;5.23;;
9166;SDS011;4618;48.818;9.088;2022-12-07T14:51:07;5.63;;;4.80;;
9166;SDS011;4618;48.818;9.088;2022-12-07T14:53:37;5.80;;;5.17;;
9166;SDS011;4618;48.818;9.088;2022-12-07T14:56:06;5.83;;;5.23;;
9166;SDS011;4618;48.818;9.088;2022-12-07T14:58:32;5.43;;;4.87;;
9166;SDS011;4618;48.818;9.088;2022-12-07T15:00:58;5.97;;;4.53;;
9166;SDS011;4618;48.818;9.088;2022-12-07T15:03:24;5.90;;;5.00;;
9166;SDS011;4618;48.818;9.088;2022-12-07T15:05:49;4.80;;;4.30;;
9166;SDS011;4618;48.818;9.088;2022-12-07T15:08:15;5.53;;;4.57;;
9166;SDS011;4618;48.818;9.088;2022-12-07T15:10:44;5.73;;;4.80;;
9166;SDS011;4618;48.818;9.088;2022-12-07T15:13:09;5.33;;;4.87;;
9166;SDS011;4618;48.818;9.088;2022-12-07T15:15:54;5.67;;;4.83;;
9166;SDS011;4618;48.818;9.088;2022-12-07T15:18:20;5.67;;;4.97;;
9166;SDS011;4618;48.818;9.088;2022-12-07T15:20:47;5.03;;;4.30;;
9166;SDS011;4618;48.818;9.088;2022-12-07T15:23:13;7.13;;;5.30;;
9166;SDS011;4618;48.818;9.088;2022-12-07T15:25:42;6.37;;;5.10;;
9166;SDS011;4618;48.818;9.088;2022-12-07T15:28:09;6.83;;;5.23;;
9166;SDS011;4618;48.818;9.088;2022-12-07T15:30:36;7.07;;;6.20;;
9166;SDS011;4618;48.818;9.088;2022-12-07T15:33:03;8.47;;;6.20;;
9166;SDS011;4618;48.818;9.088;2022-12-07T15:35:28;8.33;;;6.47;;
9166;SDS011;4618;48.818;9.088;2022-12-07T15:37:54;9.10;;;7.70;;
9166;SDS011;4618;48.818;9.088;2022-12-07T15:40:19;10.70;;;8.30;;
9166;SDS011;4618;48.818;9.088;2022-12-07T15:42:45;10.90;;;8.27;;
9166;SDS011;4618;48.818;9.088;2022-12-07T15:45:11;10.77;;;7.70;;
9166;SDS011;4618;48.818;9.088;2022-12-07T15:47:39;9.63;;;7.80;;
9166;SDS011;4618;48.818;9.088;2022-12-07T15:50:07;9.83;;;8.17;;
9166;SDS011;4618;48.818;9.088;2022-12-07T15:52:35;11.37;;;8.63;;
9166;SDS011;4618;48.818;9.088;2022-12-07T15:55:01;12.13;;;9.00;;
9166;SDS011;4618;48.818;9.088;2022-12-07T15:57:28;11.10;;;9.20;;
9166;SDS011;4618;48.818;9.088;2022-12-07T15:59:57;11.97;;;9.70;;
9166;SDS011;4618;48.818;9.088;2022-12-07T16:02:23;10.77;;;9.03;;
9166;SDS011;4618;48.818;9.088;2022-12-07T16:04:50;11.30;;;9.90;;
9166;SDS011;4618;48.818;9.088;2022-12-07T16:07:16;14.30;;;9.87;;
9166;SDS011;4618;48.818;9.088;2022-12-07T16:09:43;13.77;;;10.03;;
9166;SDS011;4618;48.818;9.088;2022-12-07T16:12:10;12.90;;;9.63;;
9166;SDS011;4618;48.818;9.088;2022-12-07T16:14:37;12.37;;;9.70;;
9166;SDS011;4618;48.818;9.088;2022-12-07T16:17:03;13.10;;;10.20;;
9166;SDS011;4618;48.818;9.088;2022-12-07T16:19:30;12.07;;;9.60;;
9166;SDS011;4618;48.818;9.088;2022-12-07T16:21:56;13.33;;;9.53;;
9166;SDS011;4618;48.818;9.088;2022-12-07T16:24:22;14.37;;;9.80;;
9166;SDS011;4618;48.818;9.088;2022-12-07T16:26:48;13.17;;;9.67;;
9166;SDS011;4618;48.818;9.088;2022-12-07T16:29:14;11.40;;;9.87;;
9166;SDS011;4618;48.818;9.088;2022-12-07T16:31:40;12.70;;;9.97;;
9166;SDS011;4618;48.818;9.088;2022-12-07T16:34:06;12.13;;;9.27;;
9166;SDS011;4618;48.818;9.088;2022-12-07T16:36:32;14.03;;;9.67;;
9166;SDS011;4618;48.818;9.088;2022-12-07T16:38:59;14.13;;;10.20;;
9166;SDS011;4618;48.818;9.088;2022-12-07T16:41:25;13.80;;;10.33;;
9166;SDS011;4618;48.818;9.088;2022-12-07T16:43:50;13.97;;;9.37;;
9166;SDS011;4618;48.818;9.088;2022-12-07T16:46:16;12.13;;;9.20;;
9166;SDS011;4618;48.818;9.088;2022-12-07T16:48:42;17.70;;;10.30;;
9166;SDS011;4618;48.818;9.088;2022-12-07T16:51:09;12.43;;;10.00;;
9166;SDS011;4618;48.818;9.088;2022-12-07T16:53:36;13.07;;;9.27;;
9166;SDS011;4618;48.818;9.088;2022-12-07T16:56:03;9.93;;;8.07;;
9166;SDS011;4618;48.818;9.088;2022-12-07T16:58:34;11.50;;;8.90;;
9166;SDS011;4618;48.818;9.088;2022-12-07T17:00:59;10.77;;;8.40;;
9166;SDS011;4618;48.818;9.088;2022-12-07T17:03:37;10.17;;;8.23;;
9166;SDS011;4618;48.818;9.088;2022-12-07T17:06:02;14.20;;;8.67;;
9166;SDS011;4618;48.818;9.088;2022-12-07T17:08:28;9.97;;;8.23;;
9166;SDS011;4618;48.818;9.088;2022-12-07T17:10:54;11.63;;;8.87;;
9166;SDS011;4618;48.818;9.088;2022-12-07T17:13:19;16.53;;;10.33;;
9166;SDS011;4618;48.818;9.088;2022-12-07T17:16:04;12.27;;;9.33;;
9166;SDS011;4618;48.818;9.088;2022-12-07T17:18:32;12.07;;;9.47;;
9166;SDS011;4618;48.818;9.088;2022-12-07T17:21:03;13.83;;;10.67;;
9166;SDS011;4618;48.818;9.088;2022-12-07T17:23:30;14.27;;;11.40;;
9166;SDS011;4618;48.818;9.088;2022-12-07T17:25:56;17.33;;;11.70;;
9166;SDS011;4618;48.818;9.088;2022-12-07T17:28:28;13.63;;;11.23;;
9166;SDS011;4618;48.818;9.088;2022-12-07T17:30:53;16.40;;;12.13;;
9166;SDS011;4618;48.818;9.088;2022-12-07T17:33:19;17.27;;;12.60;;
9166;SDS011;4618;48.818;9.088;2022-12-07T17:35:46;16.03;;;13.03;;